createdAt,value
2024-05-09T00:10:04.143Z,11.80
2024-05-09T00:20:41.311Z,11.70
2024-05-09T00:31:16.506Z,11.30
2024-05-09T00:41:51.385Z,11.10
2024-05-09T00:52:27.921Z,11.30
2024-05-09T01:03:03.497Z,11.30
2024-05-09T01:13:38.581Z,11.40
2024-05-09T01:24:13.423Z,11.30
2024-05-09T01:34:48.632Z,11.30
2024-05-09T01:45:24.111Z,11.30
2024-05-09T01:55:59.528Z,11.00
2024-05-09T02:06:40.827Z,11.50
2024-05-09T02:17:15.757Z,11.30
2024-05-09T02:27:51.417Z,11.30
2024-05-09T02:38:26.286Z,11.70
2024-05-09T02:49:01.539Z,11.60
2024-05-09T02:59:36.721Z,11.50
2024-05-09T03:10:18.426Z,11.60
2024-05-09T03:20:57.422Z,11.40
2024-05-09T03:31:32.196Z,11.40
2024-05-09T03:42:07.197Z,11.10
2024-05-09T03:52:42.102Z,10.60
2024-05-09T04:03:17.013Z,10.70
2024-05-09T04:13:52.012Z,10.70
2024-05-09T04:24:27.249Z,10.70
2024-05-09T04:35:02.597Z,10.50
2024-05-09T04:45:37.693Z,10.40
2024-05-09T04:56:12.699Z,10.50
2024-05-09T05:06:47.998Z,10.60
2024-05-09T05:17:23.367Z,10.50
2024-05-09T05:27:58.544Z,10.40
2024-05-09T05:38:33.729Z,10.60
2024-05-09T05:49:08.892Z,10.40
2024-05-09T05:59:44.080Z,10.70
2024-05-09T06:10:25.396Z,11.00
2024-05-09T06:21:01.550Z,11.20
2024-05-09T06:31:44.139Z,11.40
2024-05-09T06:42:19.089Z,11.70
2024-05-09T06:52:54.523Z,12.00
2024-05-09T07:03:30.682Z,12.40
2024-05-09T07:14:06.135Z,12.90
2024-05-09T07:24:41.316Z,13.60
2024-05-09T07:35:16.247Z,14.50
2024-05-09T07:45:54.327Z,16.20
2024-05-09T07:56:31.752Z,17.20
2024-05-09T08:07:07.763Z,18.30
2024-05-09T08:17:42.813Z,19.20
2024-05-09T08:28:17.997Z,20.00
2024-05-09T08:38:53.300Z,20.60
2024-05-09T08:49:28.904Z,21.00
2024-05-09T09:00:10.030Z,21.60
2024-05-09T09:10:48.588Z,22.20
2024-05-09T09:21:23.905Z,21.70
2024-05-09T09:32:07.028Z,22.70
2024-05-09T09:42:44.065Z,22.90
2024-05-09T09:53:20.405Z,22.50
2024-05-09T10:03:56.146Z,21.60
2024-05-09T10:14:48.433Z,22.90
2024-05-09T10:25:24.071Z,21.40
2024-05-09T10:36:04.169Z,20.80
2024-05-09T10:46:39.490Z,23.50
2024-05-09T10:57:14.747Z,23.20
2024-05-09T11:07:49.873Z,24.20
2024-05-09T11:18:30.384Z,25.20
2024-05-09T11:29:08.346Z,25.80
2024-05-09T11:39:43.631Z,25.80
2024-05-09T11:50:27.088Z,26.40
2024-05-09T12:01:05.707Z,24.40
2024-05-09T12:11:41.631Z,25.20
2024-05-09T12:22:16.820Z,25.90
2024-05-09T12:32:52.294Z,27.10
2024-05-09T12:43:27.741Z,25.20
2024-05-09T12:54:02.718Z,25.40
2024-05-09T13:04:38.059Z,27.10
2024-05-09T13:15:13.906Z,26.40
2024-05-09T13:25:49.010Z,27.50
2024-05-09T13:36:24.424Z,27.50
2024-05-09T13:46:59.927Z,27.20
2024-05-09T13:57:35.569Z,27.70
2024-05-09T14:08:10.928Z,27.50
2024-05-09T14:18:46.326Z,27.50
2024-05-09T14:29:21.367Z,27.90
2024-05-09T14:39:56.487Z,27.80
2024-05-09T14:50:36.843Z,27.50
2024-05-09T15:01:14.534Z,27.30
2024-05-09T15:11:49.522Z,26.10
2024-05-09T15:22:25.388Z,27.00
2024-05-09T15:33:01.247Z,26.70
2024-05-09T15:43:36.850Z,26.50
2024-05-09T15:54:12.385Z,26.40
2024-05-09T16:04:47.633Z,26.30
2024-05-09T16:15:23.244Z,26.30
2024-05-09T16:25:58.988Z,26.20
2024-05-09T16:36:34.515Z,25.20
2024-05-09T16:47:09.863Z,24.40
2024-05-09T16:57:44.932Z,24.50
2024-05-09T17:08:20.267Z,24.20
2024-05-09T17:18:55.345Z,23.00
2024-05-09T17:29:30.742Z,22.20
2024-05-09T17:40:14.370Z,21.60
2024-05-09T17:50:52.387Z,21.10
2024-05-09T18:01:28.690Z,20.70
2024-05-09T18:12:04.203Z,20.40
2024-05-09T18:22:39.627Z,19.90
2024-05-09T18:33:15.058Z,19.20
2024-05-09T18:43:51.292Z,18.60
2024-05-09T18:54:26.642Z,18.50
2024-05-09T19:05:01.681Z,18.00
2024-05-09T19:15:37.249Z,17.70
2024-05-09T19:26:12.550Z,17.50
2024-05-09T19:36:47.831Z,17.00
2024-05-09T19:47:23.246Z,16.90
2024-05-09T19:57:59.062Z,16.70
2024-05-09T20:08:35.303Z,16.70
2024-05-09T20:19:10.546Z,16.30
2024-05-09T20:29:46.305Z,16.00
2024-05-09T20:40:28.758Z,15.90
2024-05-09T20:51:07.887Z,15.70
2024-05-09T21:01:48.656Z,15.30
2024-05-09T21:12:24.061Z,15.10
2024-05-09T21:22:59.272Z,15.00
2024-05-09T21:33:34.598Z,14.80
2024-05-09T21:44:10.057Z,14.60
2024-05-09T21:54:45.755Z,14.40
2024-05-09T22:05:21.221Z,14.30
2024-05-09T22:15:56.058Z,14.00
2024-05-09T22:26:31.248Z,13.90
2024-05-09T22:37:06.533Z,13.70
2024-05-09T22:47:41.677Z,13.50
2024-05-09T22:58:17.454Z,13.30
2024-05-09T23:08:52.690Z,13.30
2024-05-09T23:19:27.701Z,13.00
2024-05-09T23:30:03.470Z,13.00
2024-05-09T23:40:42.513Z,12.70
2024-05-09T23:51:18.189Z,12.70
